This is the latest recevied weather packets stored in our database for station/object KE0LFX. If no packets are shown the sender has not sent any weather packets the latest 10 day(s).
| Time | Temp. | Humidity | Pressure | Rain* | Wind** | Luminosity | Snow |
|---|---|---|---|---|---|---|---|
| 1778136008 | 3.89° C | 77% | 1020.1 hPa | 0 mm | - | 0 W/m² | - |
| 1778135704 | 3.89° C | 75% | 1020 hPa | 0 mm | - | 0 W/m² | - |
| 1778135402 | 4.44° C | 74% | 1019.8 hPa | 0 mm | - | 0 W/m² | - |
| 1778135099 | 4.44° C | 73% | 1019.9 hPa | 0 mm | - | 0 W/m² | - |
| 1778134796 | 4.44° C | 73% | 1020.2 hPa | 0 mm | - | 0 W/m² | - |
| 1778134494 | 4.44° C | 73% | 1020.1 hPa | 0 mm | - | 0 W/m² | - |
| 1778134192 | 4.44° C | 72% | 1020 hPa | 0 mm | - | 0 W/m² | - |
| 1778133888 | 5° C | 69% | 1020.2 hPa | 0 mm | - | 0 W/m² | - |
| 1778133585 | 5° C | 68% | 1020.2 hPa | 0 mm | - | 0 W/m² | - |
| 1778133280 | 5° C | 67% | 1020.2 hPa | 0 mm | - | 0 W/m² | - |
| 1778132977 | 5.56° C | 64% | 1020.3 hPa | 0 mm | - | 0 W/m² | - |
| 1778132673 | 5° C | 65% | 1020.3 hPa | 0 mm | - | 0 W/m² | - |
| 1778132371 | 4.44° C | 69% | 1020.4 hPa | 0 mm | - | 0 W/m² | - |
| 1778132068 | 3.89° C | 70% | 1020.2 hPa | 0 mm | - | 0 W/m² | - |
| 1778131767 | 4.44° C | 70% | 1020.1 hPa | 0 mm | - | 0 W/m² | - |
| 1778131464 | 3.89° C | 71% | 1020.2 hPa | 0 mm | - | 0 W/m² | - |
| 1778131160 | 4.44° C | 71% | 1020.4 hPa | 0 mm | - | 0 W/m² | - |
| 1778130858 | 4.44° C | 71% | 1020.2 hPa | 0 mm | - | 0 W/m² | - |
| 1778130555 | 5° C | 69% | 1020.3 hPa | 0 mm | - | 0 W/m² | - |
| 1778130252 | 5° C | 69% | 1020.1 hPa | 0 mm | - | 0 W/m² | - |
| 1778129948 | 5° C | 68% | 1020.2 hPa | 0 mm | - | 0 W/m² | - |
| 1778129645 | 5° C | 65% | 1020.2 hPa | 0 mm | - | 0 W/m² | - |
| 1778129342 | 5° C | 66% | 1020.2 hPa | 0 mm | - | 0 W/m² | - |
| 1778129039 | 5.56° C | 66% | 1020.2 hPa | 0 mm | - | 0 W/m² | - |
| 1778128735 | 6.11° C | 65% | 1020.2 hPa | 0 mm | - | 0 W/m² | - |
* Rain latest hour (hover to see other rain measurements)
** Current wind speed in m/s (hover to see current wind gust speed)